Hamnavoe — VSTY7 — position and weather

sailwx.info

Track history (hours):
 
Tides and Currents Weather Stations Pressure Air Temp Water Temp Dewpoint Dewpoint Depression Visibility Wind Speed Wind Dir Waves Ship Positions

Hamnavoe

Operator: NorthLink Orkey & Shetland Ferries Ltd

Last reported at 2015-Feb-01 23:32 UTC. Time now 2015-Feb-02 00:15 UTC.
Position N 58°58' W 003°18'.

Length 112 m; draft 4.3 m.

Type: Ship. MMSI: 235449000.

Date/timePositionNaut miles runAvg speedWind from/ knotsBaromVisibWave heightAir tempDewpointWater temp
2015-Feb-01 23:32N 58°58' W 003°18'0 0.0
2015-Feb-01 22:32N 58°58' W 003°18'0 0.0
2015-Feb-01 21:32N 58°58' W 003°18'0 0.0
2015-Feb-01 20:32N 58°58' W 003°18'0 0.0
2015-Feb-01 19:32N 58°58' W 003°18'0 0.0
2015-Feb-01 18:32N 58°58' W 003°18'6 6.1
2015-Feb-01 17:33N 58°53' W 003°12'1312.9
2015-Feb-01 16:33N 58°42' W 003°25'7 6.2
2015-Feb-01 15:30N 58°37' W 003°32'1717.7
2015-Feb-01 14:33N 58°53' W 003°28'7 7.0
2015-Feb-01 13:33N 58°58' W 003°18'9 8.6
2015-Feb-01 12:33N 58°50' W 003°11'1212.3
2015-Feb-01 11:33N 58°41' W 003°26'5 4.9
2015-Feb-01 10:31N 58°37' W 003°32'1616.6
2015-Feb-01 09:33N 58°52' W 003°28'8 7.2
2015-Feb-01 08:29N 58°58' W 003°18'0 0.0
2015-Feb-01 07:32N 58°58' W 003°18'0 0.0
2015-Feb-01 06:32N 58°58' W 003°18'0 0.0
2015-Feb-01 05:32N 58°58' W 003°18'0 0.0
2015-Feb-01 04:32N 58°58' W 003°18'0 0.0
2015-Feb-01 03:32N 58°58' W 003°18'0 0.0
2015-Feb-01 02:32N 58°58' W 003°18'0 0.0
2015-Feb-01 01:32N 58°58' W 003°18'0 0.0
2015-Feb-01 00:32N 58°58' W 003°18'0 0.0
2015-Jan-31 23:32N 58°58' W 003°18'0 0.0
2015-Jan-31 22:32N 58°58' W 003°18'0 0.0
2015-Jan-31 21:32N 58°58' W 003°18'0 0.0
2015-Jan-31 20:32N 58°58' W 003°18'0 0.0
2015-Jan-31 19:32N 58°58' W 003°18'0 0.0
2015-Jan-31 18:32N 58°58' W 003°18'0 0.0
2015-Jan-31 17:32N 58°58' W 003°18'0 0.0
2015-Jan-31 16:32N 58°58' W 003°18'0 0.0
2015-Jan-31 15:32N 58°58' W 003°18'0 0.0
2015-Jan-31 14:32N 58°58' W 003°18'0 0.0
2015-Jan-31 13:32N 58°58' W 003°18'0 0.0
2015-Jan-31 12:32N 58°58' W 003°18'0 0.0
2015-Jan-31 11:32N 58°58' W 003°18'0 0.0
2015-Jan-31 10:32N 58°58' W 003°18'0 0.0
2015-Jan-31 09:32N 58°58' W 003°18'0 0.0
2015-Jan-31 08:32N 58°58' W 003°18'0 0.0
2015-Jan-31 07:32N 58°58' W 003°18'0 0.0
2015-Jan-31 06:32N 58°58' W 003°18'0 0.0
2015-Jan-31 05:32N 58°58' W 003°18'0 0.0
2015-Jan-31 04:32N 58°58' W 003°18'0 0.0
2015-Jan-31 03:32N 58°58' W 003°18'0 0.0
2015-Jan-31 02:32N 58°58' W 003°18'0 0.0
2015-Jan-31 01:32N 58°58' W 003°18'0 0.0
2015-Jan-31 00:32N 58°58' W 003°18'0 0.0
2015-Jan-30 23:32N 58°58' W 003°18'0 0.0
2015-Jan-30 22:32N 58°58' W 003°18'0 0.0
2015-Jan-30 21:32N 58°58' W 003°18'4 4.5
2015-Jan-30 20:33N 58°54' W 003°13'1313.0
2015-Jan-30 19:33N 58°42' W 003°24'7 7.3
2015-Jan-30 18:33N 58°37' W 003°32'1313.4
2015-Jan-30 17:33N 58°50' W 003°29'10 9.5
2015-Jan-30 16:31N 58°58' W 003°18'0 0.0
2015-Jan-30 15:31N 58°58' W 003°18'0 0.0
2015-Jan-30 14:31N 58°58' W 003°18'0 0.0
2015-Jan-30 13:31N 58°58' W 003°18'0 0.0
2015-Jan-30 12:31N 58°58' W 003°18'0 0.0
2015-Jan-30 11:31N 58°58' W 003°18'0 0.0
2015-Jan-30 10:33N 58°58' W 003°18'1212.0
2015-Jan-30 09:33N 58°47' W 003°10'1515.3
2015-Jan-30 08:33N 58°37' W 003°32'7 7.5
2015-Jan-30 07:33N 58°44' W 003°30'1514.9
2015-Jan-30 06:33N 58°57' W 003°18'0 0.4
2015-Jan-30 05:32N 58°58' W 003°18'0 0.0
2015-Jan-30 04:32N 58°58' W 003°18'0 0.0
2015-Jan-30 03:32N 58°58' W 003°18'0 0.0
2015-Jan-30 02:32N 58°58' W 003°18'0 0.0
2015-Jan-30 01:32N 58°58' W 003°18'0 0.0
2015-Jan-30 00:32N 58°58' W 003°18'0 0.0
2015-Jan-29 23:32N 58°58' W 003°18'0 0.0
2015-Jan-29 22:32N 58°58' W 003°18'0 0.0
2015-Jan-29 21:32N 58°58' W 003°18'0 0.0
2015-Jan-29 20:33N 58°58' W 003°18'1211.7
2015-Jan-29 19:33N 58°48' W 003°29'1110.2
2015-Jan-29 18:28N 58°37' W 003°32'1111.8
2015-Jan-29 17:33N 58°47' W 003°29'1212.1
2015-Jan-29 16:33N 58°58' W 003°18'0 0.0
2015-Jan-29 15:33N 58°58' W 003°18'0 0.0
2015-Jan-29 14:33N 58°58' W 003°18'0 0.0
2015-Jan-29 13:30N 58°58' W 003°18'0 0.0
2015-Jan-29 12:30N 58°58' W 003°18'0 0.0
2015-Jan-29 11:33N 58°58' W 003°18'0 0.0
2015-Jan-29 10:33N 58°58' W 003°18'1010.3
2015-Jan-29 09:33N 58°49' W 003°29'1312.9
2015-Jan-29 08:33N 58°37' W 003°32'8 7.5
2015-Jan-29 07:34N 58°44' W 003°31'1514.9
2015-Jan-29 06:33N 58°57' W 003°18'0 0.3
2015-Jan-29 05:31N 58°58' W 003°18'0 0.0
2015-Jan-29 04:31N 58°58' W 003°18'0 0.0
2015-Jan-29 03:31N 58°58' W 003°18'0 0.0
2015-Jan-29 02:31N 58°58' W 003°18'0 0.0
2015-Jan-29 01:31N 58°58' W 003°18'0 0.0
2015-Jan-29 00:28N 58°58' W 003°18'0 0.0
2015-Jan-28 23:28N 58°58' W 003°18'0 0.0
2015-Jan-28 22:31N 58°58' W 003°18'0 0.0
2015-Jan-28 21:28N 58°58' W 003°18'8 8.7
2015-Jan-28 20:33N 58°51' W 003°11'1111.2
2015-Jan-28 19:33N 58°41' W 003°21'7 7.1
2015-Jan-28 18:33N 58°37' W 003°32'1413.5
2015-Jan-28 17:33N 58°50' W 003°29'10 9.2
2015-Jan-28 16:31N 58°58' W 003°18'0 0.0
2015-Jan-28 15:16N 58°58' W 003°18'0 0.0
2015-Jan-28 14:33N 58°58' W 003°18'0 0.0
2015-Jan-28 13:33N 58°58' W 003°18'0 0.0
2015-Jan-28 12:33N 58°58' W 003°18'0 0.0
2015-Jan-28 11:32N 58°58' W 003°18'0 0.0
2015-Jan-28 10:33N 58°58' W 003°18'9 8.8
2015-Jan-28 09:34N 58°51' W 003°28'1410.9
2015-Jan-28 08:15N 58°37' W 003°32'912.8
2015-Jan-28 07:33N 58°45' W 003°32'1414.1
2015-Jan-28 06:33N 58°58' W 003°18'0 0.2
2015-Jan-28 05:26N 58°58' W 003°18'0 0.0
2015-Jan-28 04:26N 58°58' W 003°18'0 0.0
2015-Jan-28 03:32N 58°58' W 003°18'0 0.0
2015-Jan-28 02:32N 58°58' W 003°18'0 0.0
2015-Jan-28 01:26N 58°58' W 003°18'0 0.0
2015-Jan-28 00:29N 58°58' W 003°18'0 0.0
2015-Jan-27 23:32N 58°58' W 003°18'0 0.0
2015-Jan-27 22:29N 58°58' W 003°18'0 0.0
2015-Jan-27 21:32N 58°58' W 003°18'0 0.0
2015-Jan-27 20:32N 58°58' W 003°18'0 0.0
2015-Jan-27 19:32N 58°58' W 003°18'0 0.0
2015-Jan-27 18:32N 58°58' W 003°18'0 0.0
2015-Jan-27 17:32N 58°58' W 003°18'0 0.0
2015-Jan-27 16:26N 58°58' W 003°18'0 0.0
2015-Jan-27 15:32N 58°58' W 003°18'0 0.0
2015-Jan-27 14:32N 58°58' W 003°18'0 0.0
2015-Jan-27 13:32N 58°58' W 003°18'0 0.0
2015-Jan-27 12:32N 58°58' W 003°18'0 0.0
2015-Jan-27 11:32N 58°58' W 003°18'0 0.0
2015-Jan-27 10:33N 58°58' W 003°18'1211.9
2015-Jan-27 09:33N 58°48' W 003°29'1110.0
2015-Jan-27 08:27N 58°37' W 003°32'7 7.8
2015-Jan-27 07:33N 58°44' W 003°31'1514.8
2015-Jan-27 06:33N 58°57' W 003°18'1 0.8
2015-Jan-27 05:16N 58°58' W 003°18'0 0.0
2015-Jan-27 04:22N 58°58' W 003°18'0 0.0
2015-Jan-27 03:28N 58°58' W 003°18'0 0.0
2015-Jan-27 02:28N 58°58' W 003°18'0 0.0
2015-Jan-27 01:28N 58°58' W 003°18'0 0.0
2015-Jan-27 00:22N 58°58' W 003°18'0 0.0
2015-Jan-26 23:28N 58°58' W 003°18'0 0.0
2015-Jan-26 22:28N 58°58' W 003°18'0 0.0
2015-Jan-26 21:28N 58°58' W 003°18'0 0.0
2015-Jan-26 20:33N 58°58' W 003°18'1413.6
2015-Jan-26 19:33N 58°46' W 003°31'9 9.4
2015-Jan-26 18:34N 58°37' W 003°32'1211.8
2015-Jan-26 17:33N 58°48' W 003°30'1111.4
2015-Jan-26 16:33N 58°58' W 003°18'0 0.0
2015-Jan-26 15:33N 58°58' W 003°18'0 0.0
2015-Jan-26 14:33N 58°58' W 003°18'0 0.0
2015-Jan-26 13:33N 58°58' W 003°18'0 0.0
2015-Jan-26 12:33N 58°58' W 003°18'0 0.0
2015-Jan-26 11:33N 58°58' W 003°18'0 0.0
2015-Jan-26 10:33N 58°58' W 003°18'8 7.7
2015-Jan-26 09:33N 58°52' W 003°28'9 4.3
2015-Jan-26 07:33N 58°44' W 003°31'1514.8
2015-Jan-26 06:33N 58°57' W 003°17'1 0.9
2015-Jan-26 05:25N 58°58' W 003°18'0 0.0
2015-Jan-26 04:28N 58°58' W 003°18'0 0.0
2015-Jan-26 03:28N 58°58' W 003°18'0 0.0
2015-Jan-26 02:28N 58°58' W 003°18'0 0.0
2015-Jan-26 01:28N 58°58' W 003°18'0 0.0
2015-Jan-26 00:16N 58°58' W 003°18'0 0.0
2015-Jan-25 23:28N 58°58' W 003°18'0 0.0
2015-Jan-25 22:25N 58°58' W 003°18'0 0.0
2015-Jan-25 21:31N 58°58' W 003°18'0 0.0
2015-Jan-25 20:29N 58°58' W 003°18'1112.1
2015-Jan-25 19:33N 58°49' W 003°31'12 9.4
2015-Jan-25 18:15N 58°37' W 003°32'1014.2
2015-Jan-25 17:34N 58°47' W 003°30'1313.0
2015-Jan-25 16:33N 58°58' W 003°18'0 0.0
2015-Jan-25 15:33N 58°58' W 003°18'0 0.0
2015-Jan-25 14:33N 58°58' W 003°18'0 0.0
2015-Jan-25 13:33N 58°58' W 003°18'0 0.0
2015-Jan-25 12:30N 58°58' W 003°18'3 3.6
2015-Jan-25 11:33N 58°56' W 003°24'1717.0
2015-Jan-25 10:33N 58°40' W 003°31'3 2.9
2015-Jan-25 09:28N 58°37' W 003°32'1415.2
2015-Jan-25 08:33N 58°50' W 003°28'9 8.2
2015-Jan-25 07:26N 58°58' W 003°18'0 0.0
2015-Jan-25 06:32N 58°58' W 003°18'0 0.0
2015-Jan-25 05:32N 58°58' W 003°18'0 0.0
2015-Jan-25 04:32N 58°58' W 003°18'0 0.0
2015-Jan-25 03:26N 58°58' W 003°18'0 0.0
2015-Jan-25 01:20N 58°58' W 003°18'0 0.0
2015-Jan-24 23:14N 58°58' W 003°18'0 0.0
2015-Jan-24 22:32N 58°58' W 003°18'0 0.0
2015-Jan-24 21:32N 58°58' W 003°18'0 0.0
2015-Jan-24 20:33N 58°58' W 003°18'1313.3
2015-Jan-24 19:33N 58°46' W 003°31'10 8.9
2015-Jan-24 18:28N 58°37' W 003°32'1011.2
2015-Jan-24 17:33N 58°47' W 003°30'1312.3
2015-Jan-24 16:31N 58°58' W 003°18'0 0.0
2015-Jan-24 15:31N 58°58' W 003°18'0 0.0
2015-Jan-24 14:28N 58°58' W 003°18'0 0.0
2015-Jan-24 13:31N 58°58' W 003°18'0 0.0
2015-Jan-24 12:31N 58°58' W 003°18'0 0.5
2015-Jan-24 11:33N 58°57' W 003°18'1312.6
2015-Jan-24 10:33N 58°45' W 003°18'1110.9
2015-Jan-24 09:33N 58°37' W 003°32'1111.1
2015-Jan-24 08:33N 58°48' W 003°31'1211.7
2015-Jan-24 07:33N 58°57' W 003°17'1 0.7
2015-Jan-24 06:30N 58°58' W 003°18'0 0.0
2015-Jan-24 05:30N 58°58' W 003°18'0 0.0
2015-Jan-24 04:33N 58°58' W 003°18'0 0.0
2015-Jan-24 03:21N 58°58' W 003°18'0 0.0
2015-Jan-23 23:12N 58°58' W 003°18'2 0.9
2015-Jan-23 20:33N 58°56' W 003°15'1211.4
2015-Jan-23 19:32N 58°45' W 003°20'9 6.2
2015-Jan-23 18:08N 58°38' W 003°31'1017.4
2015-Jan-23 17:33N 58°48' W 003°29'1211.1
2015-Jan-23 16:31N 58°58' W 003°18'0 0.0
2015-Jan-23 15:31N 58°58' W 003°18'0 0.0
2015-Jan-23 14:31N 58°58' W 003°18'0 0.0
2015-Jan-23 13:31N 58°58' W 003°18'0 0.0
2015-Jan-23 12:31N 58°58' W 003°18'0 0.0
2015-Jan-23 11:28N 58°58' W 003°18'0 0.0
2015-Jan-23 10:22N 58°58' W 003°18'7 8.6
2015-Jan-23 09:33N 58°53' W 003°27'1712.6
2015-Jan-23 08:14N 58°37' W 003°32'710.5
2015-Jan-23 07:33N 58°44' W 003°31'1515.1
2015-Jan-23 06:33N 58°57' W 003°17'1 0.5
2015-Jan-23 05:07N 58°58' W 003°18'0 0.0
2015-Jan-23 04:25N 58°58' W 003°18'0 0.0
2015-Jan-23 03:22N 58°58' W 003°18'0 0.0
2015-Jan-23 02:22N 58°58' W 003°18'0 0.0
2015-Jan-23 01:26N 58°58' W 003°18'0 0.0
2015-Jan-23 00:31N 58°58' W 003°18'  
Track history (hours):
 
Tides and Currents Weather Stations Pressure Air Temp Water Temp Dewpoint Dewpoint Depression Visibility Wind Speed Wind Dir Waves Ship Positions

Hamnavoe

Operator: NorthLink Orkey & Shetland Ferries Ltd

Last reported at 2015-Feb-01 23:32 UTC. Time now 2015-Feb-02 00:15 UTC.
Position N 58°58' W 003°18'.

Length 112 m; draft 4.3 m.

Type: Ship. MMSI: 235449000.

Date/timePositionNaut miles runAvg speedWind from/ knotsBaromVisibWave heightAir tempDewpointWater temp
2015-Feb-01 23:32N 58°58' W 003°18'0 0.0
2015-Feb-01 22:32N 58°58' W 003°18'0 0.0
2015-Feb-01 21:32N 58°58' W 003°18'0 0.0
2015-Feb-01 20:32N 58°58' W 003°18'0 0.0
2015-Feb-01 19:32N 58°58' W 003°18'0 0.0
2015-Feb-01 18:32N 58°58' W 003°18'6 6.1
2015-Feb-01 17:33N 58°53' W 003°12'1312.9
2015-Feb-01 16:33N 58°42' W 003°25'7 6.2
2015-Feb-01 15:30N 58°37' W 003°32'1717.7
2015-Feb-01 14:33N 58°53' W 003°28'7 7.0
2015-Feb-01 13:33N 58°58' W 003°18'9 8.6
2015-Feb-01 12:33N 58°50' W 003°11'1212.3
2015-Feb-01 11:33N 58°41' W 003°26'5 4.9
2015-Feb-01 10:31N 58°37' W 003°32'1616.6
2015-Feb-01 09:33N 58°52' W 003°28'8 7.2
2015-Feb-01 08:29N 58°58' W 003°18'0 0.0
2015-Feb-01 07:32N 58°58' W 003°18'0 0.0
2015-Feb-01 06:32N 58°58' W 003°18'0 0.0
2015-Feb-01 05:32N 58°58' W 003°18'0 0.0
2015-Feb-01 04:32N 58°58' W 003°18'0 0.0
2015-Feb-01 03:32N 58°58' W 003°18'0 0.0
2015-Feb-01 02:32N 58°58' W 003°18'0 0.0
2015-Feb-01 01:32N 58°58' W 003°18'0 0.0
2015-Feb-01 00:32N 58°58' W 003°18'0 0.0
2015-Jan-31 23:32N 58°58' W 003°18'0 0.0
2015-Jan-31 22:32N 58°58' W 003°18'0 0.0
2015-Jan-31 21:32N 58°58' W 003°18'0 0.0
2015-Jan-31 20:32N 58°58' W 003°18'0 0.0
2015-Jan-31 19:32N 58°58' W 003°18'0 0.0
2015-Jan-31 18:32N 58°58' W 003°18'0 0.0
2015-Jan-31 17:32N 58°58' W 003°18'0 0.0
2015-Jan-31 16:32N 58°58' W 003°18'0 0.0
2015-Jan-31 15:32N 58°58' W 003°18'0 0.0
2015-Jan-31 14:32N 58°58' W 003°18'0 0.0
2015-Jan-31 13:32N 58°58' W 003°18'0 0.0
2015-Jan-31 12:32N 58°58' W 003°18'0 0.0
2015-Jan-31 11:32N 58°58' W 003°18'0 0.0
2015-Jan-31 10:32N 58°58' W 003°18'0 0.0
2015-Jan-31 09:32N 58°58' W 003°18'0 0.0
2015-Jan-31 08:32N 58°58' W 003°18'0 0.0
2015-Jan-31 07:32N 58°58' W 003°18'0 0.0
2015-Jan-31 06:32N 58°58' W 003°18'0 0.0
2015-Jan-31 05:32N 58°58' W 003°18'0 0.0
2015-Jan-31 04:32N 58°58' W 003°18'0 0.0
2015-Jan-31 03:32N 58°58' W 003°18'0 0.0
2015-Jan-31 02:32N 58°58' W 003°18'0 0.0
2015-Jan-31 01:32N 58°58' W 003°18'0 0.0
2015-Jan-31 00:32N 58°58' W 003°18'0 0.0
2015-Jan-30 23:32N 58°58' W 003°18'0 0.0
2015-Jan-30 22:32N 58°58' W 003°18'0 0.0
2015-Jan-30 21:32N 58°58' W 003°18'4 4.5
2015-Jan-30 20:33N 58°54' W 003°13'1313.0
2015-Jan-30 19:33N 58°42' W 003°24'7 7.3
2015-Jan-30 18:33N 58°37' W 003°32'1313.4
2015-Jan-30 17:33N 58°50' W 003°29'10 9.5
2015-Jan-30 16:31N 58°58' W 003°18'0 0.0
2015-Jan-30 15:31N 58°58' W 003°18'0 0.0
2015-Jan-30 14:31N 58°58' W 003°18'0 0.0
2015-Jan-30 13:31N 58°58' W 003°18'0 0.0
2015-Jan-30 12:31N 58°58' W 003°18'0 0.0
2015-Jan-30 11:31N 58°58' W 003°18'0 0.0
2015-Jan-30 10:33N 58°58' W 003°18'1212.0
2015-Jan-30 09:33N 58°47' W 003°10'1515.3
2015-Jan-30 08:33N 58°37' W 003°32'7 7.5
2015-Jan-30 07:33N 58°44' W 003°30'1514.9
2015-Jan-30 06:33N 58°57' W 003°18'0 0.4
2015-Jan-30 05:32N 58°58' W 003°18'0 0.0
2015-Jan-30 04:32N 58°58' W 003°18'0 0.0
2015-Jan-30 03:32N 58°58' W 003°18'0 0.0
2015-Jan-30 02:32N 58°58' W 003°18'0 0.0
2015-Jan-30 01:32N 58°58' W 003°18'0 0.0
2015-Jan-30 00:32N 58°58' W 003°18'0 0.0
2015-Jan-29 23:32N 58°58' W 003°18'0 0.0
2015-Jan-29 22:32N 58°58' W 003°18'0 0.0
2015-Jan-29 21:32N 58°58' W 003°18'0 0.0
2015-Jan-29 20:33N 58°58' W 003°18'1211.7
2015-Jan-29 19:33N 58°48' W 003°29'1110.2
2015-Jan-29 18:28N 58°37' W 003°32'1111.8
2015-Jan-29 17:33N 58°47' W 003°29'1212.1
2015-Jan-29 16:33N 58°58' W 003°18'0 0.0
2015-Jan-29 15:33N 58°58' W 003°18'0 0.0
2015-Jan-29 14:33N 58°58' W 003°18'0 0.0
2015-Jan-29 13:30N 58°58' W 003°18'0 0.0
2015-Jan-29 12:30N 58°58' W 003°18'0 0.0
2015-Jan-29 11:33N 58°58' W 003°18'0 0.0
2015-Jan-29 10:33N 58°58' W 003°18'1010.3
2015-Jan-29 09:33N 58°49' W 003°29'1312.9
2015-Jan-29 08:33N 58°37' W 003°32'8 7.5
2015-Jan-29 07:34N 58°44' W 003°31'1514.9
2015-Jan-29 06:33N 58°57' W 003°18'0 0.3
2015-Jan-29 05:31N 58°58' W 003°18'0 0.0
2015-Jan-29 04:31N 58°58' W 003°18'0 0.0
2015-Jan-29 03:31N 58°58' W 003°18'0 0.0
2015-Jan-29 02:31N 58°58' W 003°18'0 0.0
2015-Jan-29 01:31N 58°58' W 003°18'0 0.0
2015-Jan-29 00:28N 58°58' W 003°18'0 0.0
2015-Jan-28 23:28N 58°58' W 003°18'0 0.0
2015-Jan-28 22:31N 58°58' W 003°18'0 0.0
2015-Jan-28 21:28N 58°58' W 003°18'8 8.7
2015-Jan-28 20:33N 58°51' W 003°11'1111.2
2015-Jan-28 19:33N 58°41' W 003°21'7 7.1
2015-Jan-28 18:33N 58°37' W 003°32'1413.5
2015-Jan-28 17:33N 58°50' W 003°29'10 9.2
2015-Jan-28 16:31N 58°58' W 003°18'0 0.0
2015-Jan-28 15:16N 58°58' W 003°18'0 0.0
2015-Jan-28 14:33N 58°58' W 003°18'0 0.0
2015-Jan-28 13:33N 58°58' W 003°18'0 0.0
2015-Jan-28 12:33N 58°58' W 003°18'0 0.0
2015-Jan-28 11:32N 58°58' W 003°18'0 0.0
2015-Jan-28 10:33N 58°58' W 003°18'9 8.8
2015-Jan-28 09:34N 58°51' W 003°28'1410.9
2015-Jan-28 08:15N 58°37' W 003°32'912.8
2015-Jan-28 07:33N 58°45' W 003°32'1414.1
2015-Jan-28 06:33N 58°58' W 003°18'0 0.2
2015-Jan-28 05:26N 58°58' W 003°18'0 0.0
2015-Jan-28 04:26N 58°58' W 003°18'0 0.0
2015-Jan-28 03:32N 58°58' W 003°18'0 0.0
2015-Jan-28 02:32N 58°58' W 003°18'0 0.0
2015-Jan-28 01:26N 58°58' W 003°18'0 0.0
2015-Jan-28 00:29N 58°58' W 003°18'0 0.0
2015-Jan-27 23:32N 58°58' W 003°18'0 0.0
2015-Jan-27 22:29N 58°58' W 003°18'0 0.0
2015-Jan-27 21:32N 58°58' W 003°18'0 0.0
2015-Jan-27 20:32N 58°58' W 003°18'0 0.0
2015-Jan-27 19:32N 58°58' W 003°18'0 0.0
2015-Jan-27 18:32N 58°58' W 003°18'0 0.0
2015-Jan-27 17:32N 58°58' W 003°18'0 0.0
2015-Jan-27 16:26N 58°58' W 003°18'0 0.0
2015-Jan-27 15:32N 58°58' W 003°18'0 0.0
2015-Jan-27 14:32N 58°58' W 003°18'0 0.0
2015-Jan-27 13:32N 58°58' W 003°18'0 0.0
2015-Jan-27 12:32N 58°58' W 003°18'0 0.0
2015-Jan-27 11:32N 58°58' W 003°18'0 0.0
2015-Jan-27 10:33N 58°58' W 003°18'1211.9
2015-Jan-27 09:33N 58°48' W 003°29'1110.0
2015-Jan-27 08:27N 58°37' W 003°32'7 7.8
2015-Jan-27 07:33N 58°44' W 003°31'1514.8
2015-Jan-27 06:33N 58°57' W 003°18'1 0.8
2015-Jan-27 05:16N 58°58' W 003°18'0 0.0
2015-Jan-27 04:22N 58°58' W 003°18'0 0.0
2015-Jan-27 03:28N 58°58' W 003°18'0 0.0
2015-Jan-27 02:28N 58°58' W 003°18'0 0.0
2015-Jan-27 01:28N 58°58' W 003°18'0 0.0
2015-Jan-27 00:22N 58°58' W 003°18'0 0.0
2015-Jan-26 23:28N 58°58' W 003°18'0 0.0
2015-Jan-26 22:28N 58°58' W 003°18'0 0.0
2015-Jan-26 21:28N 58°58' W 003°18'0 0.0
2015-Jan-26 20:33N 58°58' W 003°18'1413.6
2015-Jan-26 19:33N 58°46' W 003°31'9 9.4
2015-Jan-26 18:34N 58°37' W 003°32'1211.8
2015-Jan-26 17:33N 58°48' W 003°30'1111.4
2015-Jan-26 16:33N 58°58' W 003°18'0 0.0
2015-Jan-26 15:33N 58°58' W 003°18'0 0.0
2015-Jan-26 14:33N 58°58' W 003°18'0 0.0
2015-Jan-26 13:33N 58°58' W 003°18'0 0.0
2015-Jan-26 12:33N 58°58' W 003°18'0 0.0
2015-Jan-26 11:33N 58°58' W 003°18'0 0.0
2015-Jan-26 10:33N 58°58' W 003°18'8 7.7
2015-Jan-26 09:33N 58°52' W 003°28'9 4.3
2015-Jan-26 07:33N 58°44' W 003°31'1514.8
2015-Jan-26 06:33N 58°57' W 003°17'1 0.9
2015-Jan-26 05:25N 58°58' W 003°18'0 0.0
2015-Jan-26 04:28N 58°58' W 003°18'0 0.0
2015-Jan-26 03:28N 58°58' W 003°18'0 0.0
2015-Jan-26 02:28N 58°58' W 003°18'0 0.0
2015-Jan-26 01:28N 58°58' W 003°18'0 0.0
2015-Jan-26 00:16N 58°58' W 003°18'0 0.0
2015-Jan-25 23:28N 58°58' W 003°18'0 0.0
2015-Jan-25 22:25N 58°58' W 003°18'0 0.0
2015-Jan-25 21:31N 58°58' W 003°18'0 0.0
2015-Jan-25 20:29N 58°58' W 003°18'1112.1
2015-Jan-25 19:33N 58°49' W 003°31'12 9.4
2015-Jan-25 18:15N 58°37' W 003°32'1014.2
2015-Jan-25 17:34N 58°47' W 003°30'1313.0
2015-Jan-25 16:33N 58°58' W 003°18'0 0.0
2015-Jan-25 15:33N 58°58' W 003°18'0 0.0
2015-Jan-25 14:33N 58°58' W 003°18'0 0.0
2015-Jan-25 13:33N 58°58' W 003°18'0 0.0
2015-Jan-25 12:30N 58°58' W 003°18'3 3.6
2015-Jan-25 11:33N 58°56' W 003°24'1717.0
2015-Jan-25 10:33N 58°40' W 003°31'3 2.9
2015-Jan-25 09:28N 58°37' W 003°32'1415.2
2015-Jan-25 08:33N 58°50' W 003°28'9 8.2
2015-Jan-25 07:26N 58°58' W 003°18'0 0.0
2015-Jan-25 06:32N 58°58' W 003°18'0 0.0
2015-Jan-25 05:32N 58°58' W 003°18'0 0.0
2015-Jan-25 04:32N 58°58' W 003°18'0 0.0
2015-Jan-25 03:26N 58°58' W 003°18'0 0.0
2015-Jan-25 01:20N 58°58' W 003°18'0 0.0
2015-Jan-24 23:14N 58°58' W 003°18'0 0.0
2015-Jan-24 22:32N 58°58' W 003°18'0 0.0
2015-Jan-24 21:32N 58°58' W 003°18'0 0.0
2015-Jan-24 20:33N 58°58' W 003°18'1313.3
2015-Jan-24 19:33N 58°46' W 003°31'10 8.9
2015-Jan-24 18:28N 58°37' W 003°32'1011.2
2015-Jan-24 17:33N 58°47' W 003°30'1312.3
2015-Jan-24 16:31N 58°58' W 003°18'0 0.0
2015-Jan-24 15:31N 58°58' W 003°18'0 0.0
2015-Jan-24 14:28N 58°58' W 003°18'0 0.0
2015-Jan-24 13:31N 58°58' W 003°18'0 0.0
2015-Jan-24 12:31N 58°58' W 003°18'0 0.5
2015-Jan-24 11:33N 58°57' W 003°18'1312.6
2015-Jan-24 10:33N 58°45' W 003°18'1110.9
2015-Jan-24 09:33N 58°37' W 003°32'1111.1
2015-Jan-24 08:33N 58°48' W 003°31'1211.7
2015-Jan-24 07:33N 58°57' W 003°17'1 0.7
2015-Jan-24 06:30N 58°58' W 003°18'0 0.0
2015-Jan-24 05:30N 58°58' W 003°18'0 0.0
2015-Jan-24 04:33N 58°58' W 003°18'0 0.0
2015-Jan-24 03:21N 58°58' W 003°18'0 0.0
2015-Jan-23 23:12N 58°58' W 003°18'2 0.9
2015-Jan-23 20:33N 58°56' W 003°15'1211.4
2015-Jan-23 19:32N 58°45' W 003°20'9 6.2
2015-Jan-23 18:08N 58°38' W 003°31'1017.4
2015-Jan-23 17:33N 58°48' W 003°29'1211.1
2015-Jan-23 16:31N 58°58' W 003°18'0 0.0
2015-Jan-23 15:31N 58°58' W 003°18'0 0.0
2015-Jan-23 14:31N 58°58' W 003°18'0 0.0
2015-Jan-23 13:31N 58°58' W 003°18'0 0.0
2015-Jan-23 12:31N 58°58' W 003°18'0 0.0
2015-Jan-23 11:28N 58°58' W 003°18'0 0.0
2015-Jan-23 10:22N 58°58' W 003°18'7 8.6
2015-Jan-23 09:33N 58°53' W 003°27'1712.6
2015-Jan-23 08:14N 58°37' W 003°32'710.5
2015-Jan-23 07:33N 58°44' W 003°31'1515.1
2015-Jan-23 06:33N 58°57' W 003°17'1 0.5
2015-Jan-23 05:07N 58°58' W 003°18'0 0.0
2015-Jan-23 04:25N 58°58' W 003°18'0 0.0
2015-Jan-23 03:22N 58°58' W 003°18'0 0.0
2015-Jan-23 02:22N 58°58' W 003°18'0 0.0
2015-Jan-23 01:26N 58°58' W 003°18'0 0.0
2015-Jan-23 00:31N 58°58' W 003°18'  

Dump ship's entire track history